KCVS

Cannon Air Force Base

Airport
ICAO code
KCVS
Summary
ICAO Region
NAM
ICAO Territory
Location

Clovis, New Mexico,

Elevation
4295 ft
Coordinates
34° 23' 36" N , 103° 19' 10" W
KCC
Airport RE
Hot and High Operations
Metar
Observation
KCVS 070855Z AUTO 00000KT 10SM OVC060 14/14 A3036 RMK AO2 SLP247 T01400138 53001 $
Station
Cannon Air Force Base / Clovis
Date/Time
2022-10-07 08:55:00
Wind direction
Wind speed
00 kts
Lowest cloud amount
overcast
Temperature
14°C
Dew point
13.8°C
Humidity
98%
Weather condition
n/a

Description

Cannon Air Force Base is a United States Air Force installation located 11 km west the central business district of Clovis, New Mexico.

Cimated

A semi-arid steppe climate (Köppen climate classification BSk), with generally cold, dry winters and hot summers. Late spring and early summer is on average the wettest period of the year.

Airport map

Aerial View

SKYbrary Partners:

Safety knowledge contributed by: